Time;durP1;ratioP1;P1;durP2;ratioP2;P2;SDS_P1;SDS_P2;PMS_P1;PMS_P2;Temp;Humidity;BMP_temperature;BMP_pressure;BME280_temperature;BME280_humidity;BME280_pressure;Samples;Min_cycle;Max_cycle;Signal;HPM_P1;HPM_P2
2022/07/18 00:00:18;;;;;;;9.60;6.05;;;;;;;;;;5094549;28;20047;-79
2022/07/18 00:02:44;;;;;;;10.23;5.53;;;;;;;;;;5078098;28;20047;-80
2022/07/18 00:05:10;;;;;;;11.55;5.78;;;;;;;;;;5094230;28;20043;-80
2022/07/18 00:07:36;;;;;;;11.45;5.85;;;;;;;;;;5078009;28;20507;-80
2022/07/18 00:10:02;;;;;;;10.20;5.60;;;;;;;;;;5094682;28;20099;-80
2022/07/18 00:12:28;;;;;;;14.35;6.22;;;;;;;;;;5094600;28;20040;-78
2022/07/18 00:14:55;;;;;;;10.63;6.18;;;;;;;;;;5094451;28;20112;-78
2022/07/18 00:17:21;;;;;;;8.52;5.22;;;;;;;;;;5094387;28;20040;-78
2022/07/18 00:19:47;;;;;;;8.82;5.25;;;;;;;;;;5094543;28;20043;-78
2022/07/18 00:22:13;;;;;;;9.13;4.95;;;;;;;;;;5094198;28;20051;-78
2022/07/18 00:24:39;;;;;;;9.20;5.32;;;;;;;;;;5094554;28;20579;-78
2022/07/18 00:27:07;;;;;;;9.40;5.40;;;;;;;;;;5094256;28;20479;-78
2022/07/18 00:29:35;;;;;;;7.32;4.97;;;;;;;;;;5094480;28;20114;-78
2022/07/18 00:32:02;;;;;;;7.80;5.10;;;;;;;;;;5094327;28;20047;-78
2022/07/18 00:34:28;;;;;;;9.05;6.03;;;;;;;;;;5093836;28;20055;-79
2022/07/18 00:36:54;;;;;;;10.88;6.97;;;;;;;;;;5077960;28;20097;-79
2022/07/18 00:39:20;;;;;;;13.68;7.55;;;;;;;;;;5093885;28;20039;-78
2022/07/18 00:41:49;;;;;;;10.57;6.90;;;;;;;;;;5094420;28;20039;-79
2022/07/18 00:44:26;;;;;;;13.48;7.47;;;;;;;;;;5093827;28;20047;-79
2022/07/18 00:46:52;;;;;;;10.73;6.80;;;;;;;;;;5094244;28;20067;-79
2022/07/18 00:49:19;;;;;;;11.45;5.63;;;;;;;;;;5093998;28;20130;-79
2022/07/18 00:51:45;;;;;;;10.07;6.15;;;;;;;;;;5109946;28;20416;-79
2022/07/18 00:54:11;;;;;;;10.15;6.05;;;;;;;;;;5099226;28;20502;-79
2022/07/18 00:56:37;;;;;;;11.40;6.53;;;;;;;;;;5112338;28;20474;-78
2022/07/18 00:59:04;;;;;;;14.50;6.80;;;;;;;;;;5094251;28;20039;-80
2022/07/18 01:01:42;;;;;;;10.88;6.57;;;;;;;;;;5112341;28;20114;-81
2022/07/18 01:04:08;;;;;;;10.27;6.60;;;;;;;;;;5094136;28;20430;-80
2022/07/18 01:06:34;;;;;;;11.35;5.95;;;;;;;;;;5093977;28;20101;-81
2022/07/18 01:09:00;;;;;;;11.23;6.07;;;;;;;;;;5076534;28;20114;-81
2022/07/18 01:11:26;;;;;;;9.20;5.90;;;;;;;;;;5080347;28;20044;-81
2022/07/18 01:13:53;;;;;;;10.27;6.20;;;;;;;;;;5094459;28;20100;-81
2022/07/18 01:16:19;;;;;;;9.70;6.00;;;;;;;;;;5093435;28;20404;-81
2022/07/18 01:18:49;;;;;;;11.77;6.10;;;;;;;;;;5083063;28;20043;-81
2022/07/18 01:21:15;;;;;;;11.68;7.22;;;;;;;;;;5091103;28;20031;-81
2022/07/18 01:23:42;;;;;;;11.25;6.28;;;;;;;;;;5077208;28;20076;-81
2022/07/18 01:26:08;;;;;;;11.40;6.13;;;;;;;;;;5076741;28;20450;-79
2022/07/18 01:28:35;;;;;;;11.40;6.45;;;;;;;;;;5093903;28;20136;-79
2022/07/18 01:31:02;;;;;;;12.18;6.40;;;;;;;;;;5076814;28;20059;-79
2022/07/18 01:33:28;;;;;;;11.50;6.47;;;;;;;;;;5076430;28;20051;-78
2022/07/18 01:35:54;;;;;;;11.18;6.60;;;;;;;;;;5093930;28;20043;-78
2022/07/18 01:38:20;;;;;;;11.77;6.30;;;;;;;;;;5093670;28;20050;-79
2022/07/18 01:40:46;;;;;;;10.00;5.90;;;;;;;;;;5069960;28;20040;-79
2022/07/18 01:43:12;;;;;;;14.07;6.75;;;;;;;;;;5091346;28;20043;-79
2022/07/18 01:45:39;;;;;;;10.15;6.25;;;;;;;;;;5079203;28;20123;-79
2022/07/18 01:48:05;;;;;;;10.73;6.70;;;;;;;;;;5091591;28;20567;-79
2022/07/18 01:50:31;;;;;;;9.38;6.15;;;;;;;;;;5112616;28;20066;-79
2022/07/18 01:52:57;;;;;;;12.20;6.72;;;;;;;;;;5088018;28;20052;-79
2022/07/18 01:55:23;;;;;;;11.02;6.45;;;;;;;;;;5092154;28;20096;-79
2022/07/18 01:57:49;;;;;;;12.30;6.30;;;;;;;;;;5107954;28;20561;-79
2022/07/18 02:00:15;;;;;;;13.10;6.88;;;;;;;;;;5090021;28;20054;-78
2022/07/18 02:02:42;;;;;;;13.75;7.03;;;;;;;;;;5094774;28;20050;-79
2022/07/18 02:05:08;;;;;;;11.57;6.90;;;;;;;;;;5085096;28;20365;-79
2022/07/18 02:07:38;;;;;;;14.38;6.60;;;;;;;;;;5076782;28;20044;-79
2022/07/18 02:10:06;;;;;;;10.10;6.25;;;;;;;;;;5115145;28;20496;-79
2022/07/18 02:12:32;;;;;;;9.50;6.05;;;;;;;;;;5114774;28;20044;-79
2022/07/18 02:14:58;;;;;;;11.40;6.07;;;;;;;;;;5088622;28;20144;-79
2022/07/18 02:17:25;;;;;;;12.15;6.60;;;;;;;;;;5090423;28;20039;-79
2022/07/18 02:19:51;;;;;;;10.60;6.20;;;;;;;;;;5097098;28;20377;-79
2022/07/18 02:22:17;;;;;;;14.38;6.88;;;;;;;;;;5096407;28;20046;-78
2022/07/18 02:24:43;;;;;;;12.05;6.65;;;;;;;;;;5096481;28;20441;-78
2022/07/18 02:27:09;;;;;;;9.82;6.13;;;;;;;;;;5079314;28;20043;-78
2022/07/18 02:29:37;;;;;;;11.68;6.97;;;;;;;;;;5096032;28;20126;-79
2022/07/18 02:32:03;;;;;;;9.60;5.88;;;;;;;;;;5096392;28;20040;-78
2022/07/18 02:34:29;;;;;;;13.10;6.28;;;;;;;;;;5095400;28;20052;-79
2022/07/18 02:36:55;;;;;;;10.70;6.53;;;;;;;;;;5079540;28;20633;-78
2022/07/18 02:39:21;;;;;;;10.40;6.60;;;;;;;;;;5095941;28;20072;-78
2022/07/18 02:41:48;;;;;;;15.05;6.70;;;;;;;;;;5091264;28;20040;-79
2022/07/18 02:44:14;;;;;;;13.02;6.47;;;;;;;;;;5087120;28;20040;-79
2022/07/18 02:46:40;;;;;;;10.07;6.47;;;;;;;;;;5114016;28;20183;-79
2022/07/18 02:49:06;;;;;;;12.30;7.00;;;;;;;;;;5106101;28;20043;-78
2022/07/18 02:51:33;;;;;;;10.27;6.43;;;;;;;;;;5107962;28;20168;-78
2022/07/18 02:53:59;;;;;;;11.43;6.72;;;;;;;;;;5075832;28;20109;-78
2022/07/18 02:56:25;;;;;;;13.70;6.38;;;;;;;;;;5086293;28;20039;-78
2022/07/18 02:58:51;;;;;;;10.88;6.28;;;;;;;;;;5095887;28;20035;-78
2022/07/18 03:01:17;;;;;;;10.50;6.78;;;;;;;;;;5095675;28;20043;-78
2022/07/18 03:03:43;;;;;;;12.02;7.00;;;;;;;;;;5095881;28;20085;-79
2022/07/18 03:06:09;;;;;;;11.60;6.63;;;;;;;;;;5095689;28;20039;-78
2022/07/18 03:08:35;;;;;;;13.75;6.07;;;;;;;;;;5113496;28;20054;-79
2022/07/18 03:11:02;;;;;;;11.32;6.80;;;;;;;;;;5113895;28;20073;-79
2022/07/18 03:13:28;;;;;;;12.70;6.45;;;;;;;;;;5113877;28;20475;-79
2022/07/18 03:15:54;;;;;;;13.02;6.38;;;;;;;;;;5113806;28;20090;-79
2022/07/18 03:18:22;;;;;;;9.88;6.50;;;;;;;;;;5113338;28;20035;-79
2022/07/18 03:20:48;;;;;;;10.98;6.60;;;;;;;;;;5095647;28;20518;-79
2022/07/18 03:23:14;;;;;;;15.75;7.30;;;;;;;;;;5113640;28;20036;-79
2022/07/18 03:25:40;;;;;;;13.18;7.13;;;;;;;;;;5094942;28;20403;-79
2022/07/18 03:28:06;;;;;;;11.27;6.55;;;;;;;;;;5113622;28;20047;-79
2022/07/18 03:30:32;;;;;;;10.85;6.47;;;;;;;;;;5095098;28;20118;-79
2022/07/18 03:32:58;;;;;;;11.30;6.22;;;;;;;;;;5095047;28;20047;-81
2022/07/18 03:35:25;;;;;;;11.25;6.57;;;;;;;;;;5094853;28;20071;-81
2022/07/18 03:37:51;;;;;;;11.95;6.47;;;;;;;;;;5095171;28;20464;-79
2022/07/18 03:40:17;;;;;;;10.98;6.65;;;;;;;;;;5095036;28;20032;-81
2022/07/18 03:42:43;;;;;;;13.02;7.13;;;;;;;;;;5094772;28;20389;-81
2022/07/18 03:45:10;;;;;;;12.55;7.05;;;;;;;;;;5095204;28;20051;-82
2022/07/18 03:47:36;;;;;;;11.18;6.60;;;;;;;;;;5094436;28;20074;-81
2022/07/18 03:50:02;;;;;;;13.15;6.72;;;;;;;;;;5080795;28;20065;-81
2022/07/18 03:52:28;;;;;;;12.30;6.93;;;;;;;;;;5094852;28;20040;-81
2022/07/18 03:54:54;;;;;;;11.77;7.07;;;;;;;;;;5094911;28;20139;-81
2022/07/18 03:57:20;;;;;;;13.75;7.20;;;;;;;;;;5112911;28;20031;-82
2022/07/18 03:59:47;;;;;;;13.70;6.78;;;;;;;;;;5094490;28;20047;-82
2022/07/18 04:02:13;;;;;;;11.30;7.10;;;;;;;;;;5093145;28;20046;-77
2022/07/18 04:04:39;;;;;;;13.00;6.60;;;;;;;;;;5088729;28;20562;-81
2022/07/18 04:07:05;;;;;;;14.07;6.82;;;;;;;;;;5093384;28;20407;-81
2022/07/18 04:09:31;;;;;;;11.73;6.68;;;;;;;;;;5094305;28;20039;-82
2022/07/18 04:11:57;;;;;;;11.55;6.60;;;;;;;;;;5094446;28;20118;-79
2022/07/18 04:14:23;;;;;;;12.20;6.43;;;;;;;;;;5094541;28;20042;-81
2022/07/18 04:16:49;;;;;;;10.07;6.18;;;;;;;;;;5090764;28;20130;-82
2022/07/18 04:19:17;;;;;;;12.10;6.45;;;;;;;;;;5094447;28;20484;-81
2022/07/18 04:21:43;;;;;;;11.43;5.93;;;;;;;;;;5094234;28;20376;-81
2022/07/18 04:24:09;;;;;;;12.50;6.50;;;;;;;;;;5080017;28;20044;-79
2022/07/18 04:26:35;;;;;;;12.07;6.68;;;;;;;;;;5094003;28;20044;-81
2022/07/18 04:29:01;;;;;;;11.35;6.13;;;;;;;;;;5098012;28;20111;-81
2022/07/18 04:31:27;;;;;;;9.38;5.68;;;;;;;;;;5094455;28;20040;-78
2022/07/18 04:33:54;;;;;;;10.80;6.47;;;;;;;;;;5094220;28;20500;-81
2022/07/18 04:36:20;;;;;;;10.23;6.15;;;;;;;;;;5094003;28;20067;-81
2022/07/18 04:38:46;;;;;;;9.82;5.82;;;;;;;;;;5093574;28;20100;-82
2022/07/18 04:41:12;;;;;;;14.00;6.35;;;;;;;;;;5077561;28;20058;-82
2022/07/18 04:43:38;;;;;;;16.50;6.20;;;;;;;;;;5094059;28;20051;-82
2022/07/18 04:46:04;;;;;;;10.80;6.22;;;;;;;;;;5094400;28;20110;-82
2022/07/18 04:48:31;;;;;;;10.60;6.28;;;;;;;;;;5094169;28;20040;-82
2022/07/18 04:50:57;;;;;;;9.60;5.88;;;;;;;;;;5083370;28;20044;-82
2022/07/18 04:53:23;;;;;;;10.55;5.75;;;;;;;;;;5094100;28;20032;-82
2022/07/18 04:55:49;;;;;;;10.38;6.18;;;;;;;;;;5094123;28;20126;-81
2022/07/18 04:58:15;;;;;;;10.00;5.80;;;;;;;;;;5094047;28;20043;-82
2022/07/18 05:00:41;;;;;;;10.27;5.60;;;;;;;;;;5093631;28;20069;-82
2022/07/18 05:03:07;;;;;;;11.43;6.28;;;;;;;;;;5094219;28;20051;-82
2022/07/18 05:05:33;;;;;;;11.88;6.35;;;;;;;;;;5093426;28;20123;-79
2022/07/18 05:07:59;;;;;;;10.30;6.10;;;;;;;;;;5093999;28;20100;-81
2022/07/18 05:10:25;;;;;;;11.30;6.22;;;;;;;;;;5094167;28;20380;-82
2022/07/18 05:12:53;;;;;;;12.30;6.18;;;;;;;;;;5093718;28;20048;-82
2022/07/18 05:15:21;;;;;;;10.20;5.80;;;;;;;;;;5090946;28;20048;-81
2022/07/18 05:17:47;;;;;;;10.02;5.90;;;;;;;;;;5076669;28;20042;-82
2022/07/18 05:20:16;;;;;;;13.18;6.28;;;;;;;;;;5096002;28;20480;-82
2022/07/18 05:22:42;;;;;;;10.70;6.10;;;;;;;;;;5097226;28;20074;-79
2022/07/18 05:25:08;;;;;;;9.48;5.85;;;;;;;;;;5097775;28;20043;-82
2022/07/18 05:27:35;;;;;;;11.07;6.05;;;;;;;;;;5097194;28;20036;-82
2022/07/18 05:30:01;;;;;;;10.30;5.85;;;;;;;;;;5097862;28;20368;-82
2022/07/18 05:32:28;;;;;;;11.23;6.07;;;;;;;;;;5097660;28;20380;-81
2022/07/18 05:34:54;;;;;;;12.23;5.78;;;;;;;;;;5097159;28;20051;-81
2022/07/18 05:37:20;;;;;;;13.07;6.00;;;;;;;;;;5097508;28;20039;-81
2022/07/18 05:39:47;;;;;;;10.80;5.55;;;;;;;;;;5096944;28;20036;-81
2022/07/18 05:42:13;;;;;;;11.75;5.38;;;;;;;;;;5097827;28;20073;-82
2022/07/18 05:44:39;;;;;;;8.55;5.40;;;;;;;;;;5097177;28;20537;-78
2022/07/18 05:47:05;;;;;;;9.82;5.68;;;;;;;;;;5097354;28;20084;-81
2022/07/18 05:49:31;;;;;;;9.55;5.10;;;;;;;;;;5085486;28;20037;-82
2022/07/18 05:51:57;;;;;;;9.13;5.35;;;;;;;;;;5077598;28;20507;-83
2022/07/18 05:54:23;;;;;;;9.80;5.20;;;;;;;;;;5097445;28;20484;-75
2022/07/18 05:56:50;;;;;;;10.57;5.13;;;;;;;;;;5115010;28;20388;-81
2022/07/18 05:59:17;;;;;;;9.02;5.13;;;;;;;;;;5097226;28;20116;-83
2022/07/18 06:01:43;;;;;;;9.20;4.80;;;;;;;;;;5097023;28;20403;-82
2022/07/18 06:04:09;;;;;;;9.65;5.05;;;;;;;;;;5096829;28;20070;-83
2022/07/18 06:06:36;;;;;;;9.00;5.22;;;;;;;;;;5096935;28;20043;-83
2022/07/18 06:09:02;;;;;;;9.80;5.25;;;;;;;;;;5082438;28;20387;-82
2022/07/18 06:11:28;;;;;;;9.02;5.05;;;;;;;;;;5096978;28;20051;-82
2022/07/18 06:13:54;;;;;;;9.00;4.78;;;;;;;;;;5096446;28;20046;-82
2022/07/18 06:16:20;;;;;;;9.25;5.00;;;;;;;;;;5096844;28;20084;-81
2022/07/18 06:18:46;;;;;;;7.75;4.85;;;;;;;;;;5096134;28;20047;-82
2022/07/18 06:21:13;;;;;;;10.55;5.28;;;;;;;;;;5096924;28;20043;-83
2022/07/18 06:23:40;;;;;;;10.10;4.90;;;;;;;;;;5096925;28;20055;-82
2022/07/18 06:26:06;;;;;;;8.25;4.55;;;;;;;;;;5096657;28;20093;-82
2022/07/18 06:28:32;;;;;;;9.68;5.20;;;;;;;;;;5096619;28;20510;-82
2022/07/18 06:30:58;;;;;;;9.35;5.38;;;;;;;;;;5096075;28;20071;-80
2022/07/18 06:33:24;;;;;;;10.90;5.07;;;;;;;;;;5096304;28;20048;-84
2022/07/18 06:35:51;;;;;;;8.88;5.10;;;;;;;;;;5114425;28;20040;-84
2022/07/18 06:38:17;;;;;;;8.25;4.60;;;;;;;;;;5096696;28;20396;-84
2022/07/18 06:40:43;;;;;;;13.88;4.82;;;;;;;;;;5096389;28;20054;-80
2022/07/18 06:43:10;;;;;;;8.45;4.45;;;;;;;;;;5096368;28;20039;-80
2022/07/18 06:45:36;;;;;;;8.40;4.80;;;;;;;;;;5097079;28;20040;-80
2022/07/18 06:48:02;;;;;;;9.25;4.55;;;;;;;;;;5092842;28;20044;-81
2022/07/18 06:50:28;;;;;;;6.93;4.57;;;;;;;;;;5082106;28;20032;-80
2022/07/18 06:52:54;;;;;;;10.27;4.10;;;;;;;;;;5096285;28;20046;-81
2022/07/18 06:55:20;;;;;;;7.32;3.97;;;;;;;;;;5096678;28;20357;-81
2022/07/18 06:57:46;;;;;;;6.78;3.90;;;;;;;;;;5114691;28;20126;-81
2022/07/18 07:00:14;;;;;;;7.50;4.03;;;;;;;;;;5096163;28;20036;-82
2022/07/18 07:02:49;;;;;;;9.52;3.85;;;;;;;;;;5096473;28;20372;-82
2022/07/18 07:05:21;;;;;;;8.30;4.55;;;;;;;;;;5096144;28;20063;-83
2022/07/18 07:07:48;;;;;;;6.65;4.05;;;;;;;;;;5095712;28;20082;-83
2022/07/18 07:10:16;;;;;;;7.18;4.20;;;;;;;;;;5081907;28;20032;-81
2022/07/18 07:12:43;;;;;;;6.90;3.80;;;;;;;;;;5065662;28;20039;-80
2022/07/18 07:15:10;;;;;;;7.10;4.18;;;;;;;;;;5095588;28;20040;-82
2022/07/18 07:17:36;;;;;;;6.68;3.80;;;;;;;;;;5095664;28;20039;-85
2022/07/18 07:20:04;;;;;;;6.43;3.60;;;;;;;;;;5095461;28;20484;-82
2022/07/18 07:22:30;;;;;;;7.90;3.60;;;;;;;;;;5095742;28;20066;-86
2022/07/18 07:24:56;;;;;;;8.60;3.90;;;;;;;;;;5092328;28;20523;-86
2022/07/18 07:27:22;;;;;;;6.30;3.50;;;;;;;;;;5095397;28;20446;-86
2022/07/18 07:29:48;;;;;;;7.35;3.83;;;;;;;;;;5095149;28;20043;-86
2022/07/18 07:32:14;;;;;;;8.13;3.63;;;;;;;;;;5082098;28;20079;-86
2022/07/18 07:34:40;;;;;;;6.88;3.22;;;;;;;;;;5074258;28;20048;-88
2022/07/18 07:37:06;;;;;;;7.93;3.33;;;;;;;;;;5074744;28;20048;-87
2022/07/18 07:39:32;;;;;;;6.50;3.22;;;;;;;;;;5074546;28;20031;-82
2022/07/18 07:41:58;;;;;;;5.95;3.30;;;;;;;;;;5081874;28;20068;-87
2022/07/18 07:44:24;;;;;;;6.13;2.90;;;;;;;;;;5087107;28;20055;-88
2022/07/18 07:46:51;;;;;;;8.00;2.80;;;;;;;;;;5074686;28;20036;-88
2022/07/18 07:49:17;;;;;;;5.60;2.80;;;;;;;;;;5075056;28;20051;-87
2022/07/18 07:51:43;;;;;;;5.72;2.60;;;;;;;;;;5091716;28;20426;-88
2022/07/18 07:54:09;;;;;;;6.07;3.13;;;;;;;;;;5074351;28;20469;-87
2022/07/18 07:56:35;;;;;;;7.18;2.90;;;;;;;;;;5058060;28;20036;-88
2022/07/18 07:59:01;;;;;;;4.57;2.63;;;;;;;;;;5090958;28;20032;-89
2022/07/18 08:01:27;;;;;;;6.70;3.10;;;;;;;;;;5074563;28;20036;-86
2022/07/18 08:03:53;;;;;;;6.28;3.10;;;;;;;;;;5076665;28;20185;-88
2022/07/18 08:06:20;;;;;;;7.90;2.70;;;;;;;;;;5091451;28;20036;-89
2022/07/18 08:08:46;;;;;;;4.85;2.60;;;;;;;;;;5091441;28;20412;-88
2022/07/18 08:11:12;;;;;;;7.00;3.00;;;;;;;;;;5090955;28;20429;-88
2022/07/18 08:13:38;;;;;;;6.40;2.78;;;;;;;;;;5091626;28;20430;-87
2022/07/18 08:16:04;;;;;;;4.60;2.55;;;;;;;;;;5090725;28;20092;-85
2022/07/18 08:18:30;;;;;;;5.50;2.70;;;;;;;;;;5091494;28;20460;-80
2022/07/18 08:20:56;;;;;;;6.10;2.78;;;;;;;;;;5090613;28;20111;-86
2022/07/18 08:23:22;;;;;;;8.00;2.80;;;;;;;;;;5091456;28;20489;-86
2022/07/18 08:25:48;;;;;;;6.07;2.50;;;;;;;;;;5091004;28;20481;-88
2022/07/18 08:28:15;;;;;;;6.82;2.13;;;;;;;;;;5090626;28;20036;-83
2022/07/18 08:30:41;;;;;;;7.32;2.65;;;;;;;;;;5074579;28;20556;-88
2022/07/18 08:33:07;;;;;;;4.75;2.40;;;;;;;;;;5090540;28;20056;-83
2022/07/18 08:35:34;;;;;;;8.18;2.40;;;;;;;;;;5091112;28;20040;-85
2022/07/18 08:38:01;;;;;;;7.28;2.30;;;;;;;;;;5090794;28;20036;-83
2022/07/18 08:40:27;;;;;;;5.45;2.55;;;;;;;;;;5090925;28;20102;-86
2022/07/18 08:42:54;;;;;;;6.57;2.38;;;;;;;;;;5074041;28;20136;-80
2022/07/18 08:45:22;;;;;;;3.55;2.25;;;;;;;;;;5090988;28;20035;-84
2022/07/18 08:47:51;;;;;;;5.13;2.30;;;;;;;;;;5090975;28;20044;-85
2022/07/18 08:50:18;;;;;;;6.07;2.08;;;;;;;;;;5073985;28;20484;-82
2022/07/18 08:52:44;;;;;;;7.88;2.22;;;;;;;;;;5082141;28;20036;-82
2022/07/18 08:55:11;;;;;;;4.47;2.10;;;;;;;;;;5088257;28;20051;-84
2022/07/18 08:57:38;;;;;;;4.38;2.00;;;;;;;;;;5095295;28;20445;-82
2022/07/18 09:00:09;;;;;;;5.97;2.25;;;;;;;;;;5094478;28;20040;-83
2022/07/18 09:02:35;;;;;;;6.78;2.25;;;;;;;;;;5094958;28;20051;-81
2022/07/18 09:05:02;;;;;;;5.88;1.95;;;;;;;;;;5094581;28;20055;-81
2022/07/18 09:07:35;;;;;;;5.70;2.03;;;;;;;;;;5077639;28;20043;-85
2022/07/18 09:10:02;;;;;;;4.95;1.85;;;;;;;;;;5077418;28;20090;-81
2022/07/18 09:12:31;;;;;;;5.10;2.00;;;;;;;;;;5094477;28;20039;-82
2022/07/18 09:14:57;;;;;;;5.82;1.95;;;;;;;;;;5095043;28;20047;-82
2022/07/18 09:17:25;;;;;;;8.13;2.17;;;;;;;;;;5094865;28;20656;-83
2022/07/18 09:20:00;;;;;;;7.10;2.05;;;;;;;;;;5094819;28;20046;-81
2022/07/18 09:22:27;;;;;;;4.32;1.65;;;;;;;;;;5094301;28;20040;-81
2022/07/18 09:25:05;;;;;;;4.03;2.00;;;;;;;;;;5094590;28;20040;-81
2022/07/18 09:27:34;;;;;;;5.13;1.90;;;;;;;;;;5077103;28;20097;-82
2022/07/18 09:30:10;;;;;;;3.97;1.92;;;;;;;;;;5077698;28;20040;-85
2022/07/18 09:32:37;;;;;;;4.03;1.70;;;;;;;;;;5096533;28;20043;-83
2022/07/18 09:35:07;;;;;;;6.20;1.85;;;;;;;;;;5097648;28;20059;-81
2022/07/18 09:37:33;;;;;;;7.07;1.88;;;;;;;;;;5083128;28;20101;-80
2022/07/18 09:40:19;;;;;;;7.20;1.80;;;;;;;;;;5097732;28;20102;-78
2022/07/18 09:42:50;;;;;;;3.63;1.80;;;;;;;;;;5097208;28;20044;-78
2022/07/18 09:45:16;;;;;;;5.05;1.70;;;;;;;;;;5097454;28;20043;-78
2022/07/18 09:47:52;;;;;;;4.20;1.90;;;;;;;;;;5097363;28;20044;-80
2022/07/18 09:50:20;;;;;;;3.22;1.65;;;;;;;;;;5100835;28;20035;-80
2022/07/18 09:52:55;;;;;;;6.00;1.95;;;;;;;;;;5097379;28;20036;-80
2022/07/18 09:55:21;;;;;;;5.15;2.00;;;;;;;;;;5096939;28;20028;-80
2022/07/18 09:57:57;;;;;;;6.43;2.00;;;;;;;;;;5097012;28;20039;-80
2022/07/18 10:00:23;;;;;;;5.47;2.30;;;;;;;;;;5096842;28;20540;-78
2022/07/18 10:02:49;;;;;;;4.47;1.90;;;;;;;;;;5097553;28;20043;-81
2022/07/18 10:05:16;;;;;;;4.60;2.13;;;;;;;;;;5096268;28;20050;-80
2022/07/18 10:07:42;;;;;;;7.90;1.85;;;;;;;;;;5097074;28;20123;-81
2022/07/18 10:10:08;;;;;;;3.88;2.05;;;;;;;;;;5114820;28;20484;-80
2022/07/18 10:12:34;;;;;;;5.20;2.00;;;;;;;;;;5096874;28;20541;-80
2022/07/18 10:15:00;;;;;;;7.07;2.25;;;;;;;;;;5097063;28;20043;-81
2022/07/18 10:17:27;;;;;;;5.55;2.00;;;;;;;;;;5096471;28;20031;-80
2022/07/18 10:19:53;;;;;;;6.30;2.00;;;;;;;;;;5097095;28;20469;-82
2022/07/18 10:22:19;;;;;;;4.85;2.00;;;;;;;;;;5096273;28;20058;-80
2022/07/18 10:24:45;;;;;;;5.93;1.83;;;;;;;;;;5096590;28;20042;-83
2022/07/18 10:27:16;;;;;;;5.70;2.10;;;;;;;;;;5096362;28;20123;-81
2022/07/18 10:30:01;;;;;;;5.45;1.85;;;;;;;;;;5096631;28;20031;-80
2022/07/18 10:32:33;;;;;;;4.53;2.00;;;;;;;;;;5095933;28;20075;-80
2022/07/18 10:35:00;;;;;;;4.00;1.60;;;;;;;;;;5096637;28;20118;-81
2022/07/18 10:37:26;;;;;;;5.30;2.03;;;;;;;;;;5096307;28;20090;-81
2022/07/18 10:39:54;;;;;;;6.68;2.10;;;;;;;;;;5096322;28;20047;-80
2022/07/18 10:42:24;;;;;;;7.53;2.17;;;;;;;;;;5096281;28;20503;-80
2022/07/18 10:44:51;;;;;;;4.28;2.10;;;;;;;;;;5096453;28;20104;-79
2022/07/18 10:47:20;;;;;;;4.00;2.00;;;;;;;;;;5084854;28;20044;-81
2022/07/18 10:49:49;;;;;;;4.35;2.30;;;;;;;;;;5060358;28;20036;-80
2022/07/18 10:52:27;;;;;;;5.90;2.00;;;;;;;;;;5096045;28;20549;-80
2022/07/18 10:55:03;;;;;;;4.40;2.13;;;;;;;;;;5096141;28;20050;-80
2022/07/18 10:57:39;;;;;;;3.92;2.15;;;;;;;;;;5082707;28;20534;-80
2022/07/18 11:00:08;;;;;;;4.82;2.20;;;;;;;;;;5095799;28;20062;-80
2022/07/18 11:02:57;;;;;;;7.70;2.30;;;;;;;;;;5095719;28;20039;-79
2022/07/18 11:05:26;;;;;;;4.90;1.88;;;;;;;;;;5095434;28;20050;-79
2022/07/18 11:07:58;;;;;;;5.15;2.55;;;;;;;;;;5096069;28;20462;-80
2022/07/18 11:13:21;;;;;;;4.68;2.00;;;;;;;;;;5095920;28;20051;-81
2022/07/18 11:15:58;;;;;;;4.90;2.25;;;;;;;;;;5095673;28;20036;-79
2022/07/18 11:18:25;;;;;;;4.38;2.05;;;;;;;;;;5094190;28;20047;-77
2022/07/18 11:20:51;;;;;;;3.67;2.10;;;;;;;;;;5078995;28;20403;-82
2022/07/18 11:23:22;;;;;;;4.18;2.45;;;;;;;;;;5095325;28;20119;-77
2022/07/18 11:25:49;;;;;;;5.50;2.15;;;;;;;;;;5095645;28;20455;-78
2022/07/18 11:28:15;;;;;;;4.40;2.30;;;;;;;;;;5095277;28;20373;-80
2022/07/18 11:30:42;;;;;;;4.35;2.30;;;;;;;;;;5094506;28;20391;-76
2022/07/18 11:33:21;;;;;;;4.78;2.13;;;;;;;;;;5074790;28;20055;-80
2022/07/18 11:35:47;;;;;;;7.32;2.00;;;;;;;;;;5058495;28;20063;-79
2022/07/18 11:38:13;;;;;;;3.80;2.10;;;;;;;;;;5083352;28;20492;-79
2022/07/18 11:40:46;;;;;;;5.15;2.08;;;;;;;;;;5073262;28;20522;-79
2022/07/18 11:43:19;;;;;;;6.60;2.35;;;;;;;;;;5075501;28;20476;-79
2022/07/18 11:45:45;;;;;;;4.93;2.42;;;;;;;;;;5061785;28;20043;-79
2022/07/18 11:48:11;;;;;;;6.55;2.45;;;;;;;;;;5073805;28;20040;-79
2022/07/18 11:50:38;;;;;;;4.63;2.20;;;;;;;;;;5077521;28;20479;-78
2022/07/18 11:53:04;;;;;;;5.82;2.55;;;;;;;;;;5082705;28;20044;-81
2022/07/18 11:55:37;;;;;;;5.97;2.30;;;;;;;;;;5068041;28;20040;-80
2022/07/18 11:58:10;;;;;;;5.03;2.85;;;;;;;;;;5069878;28;20039;-79
2022/07/18 12:00:37;;;;;;;4.93;2.20;;;;;;;;;;5053980;28;20036;-80
2022/07/18 12:03:09;;;;;;;4.47;2.30;;;;;;;;;;5068918;28;20044;-79
2022/07/18 12:05:40;;;;;;;5.72;2.40;;;;;;;;;;5066245;28;20043;-79
2022/07/18 12:08:36;;;;;;;6.95;2.70;;;;;;;;;;5074316;28;20101;-79
2022/07/18 12:11:03;;;;;;;7.65;2.60;;;;;;;;;;5066308;28;20051;-78
2022/07/18 12:13:48;;;;;;;6.88;2.95;;;;;;;;;;5068353;28;20050;-80
2022/07/18 12:16:32;;;;;;;4.22;2.63;;;;;;;;;;5061376;28;20046;-79
2022/07/18 12:19:01;;;;;;;4.05;2.53;;;;;;;;;;5066789;28;20078;-82
2022/07/18 12:21:40;;;;;;;4.75;2.70;;;;;;;;;;5066587;28;20036;-80
2022/07/18 12:24:18;;;;;;;6.25;2.90;;;;;;;;;;5074046;28;20131;-79
2022/07/18 12:26:44;;;;;;;7.47;3.03;;;;;;;;;;5066531;28;20070;-82
2022/07/18 12:29:10;;;;;;;6.90;2.90;;;;;;;;;;5073836;28;20044;-79
2022/07/18 12:31:46;;;;;;;6.55;2.90;;;;;;;;;;5072435;28;20063;-78
2022/07/18 12:34:17;;;;;;;4.95;2.90;;;;;;;;;;5088562;28;20495;-79
2022/07/18 12:36:59;;;;;;;3.90;2.70;;;;;;;;;;5094082;28;20039;-79
2022/07/18 12:39:29;;;;;;;4.43;2.80;;;;;;;;;;5090397;28;20042;-79
2022/07/18 12:41:56;;;;;;;5.10;2.85;;;;;;;;;;5094284;28;20058;-81
2022/07/18 12:44:22;;;;;;;5.43;3.17;;;;;;;;;;5094153;28;20067;-80
2022/07/18 12:46:48;;;;;;;4.60;2.63;;;;;;;;;;5093782;28;20043;-80
2022/07/18 12:49:14;;;;;;;7.10;3.00;;;;;;;;;;5096701;28;20089;-80
2022/07/18 12:51:40;;;;;;;10.30;3.05;;;;;;;;;;5088934;28;20448;-79
2022/07/18 12:54:07;;;;;;;6.95;3.08;;;;;;;;;;5093883;28;20093;-81
2022/07/18 12:56:33;;;;;;;5.82;2.60;;;;;;;;;;5093843;28;20110;-80
2022/07/18 12:58:59;;;;;;;5.25;2.80;;;;;;;;;;5093925;28;20036;-81
2022/07/18 13:01:25;;;;;;;7.45;3.13;;;;;;;;;;5093463;28;20040;-74
2022/07/18 13:03:51;;;;;;;5.15;3.00;;;;;;;;;;5094113;28;20044;-79
2022/07/18 13:06:17;;;;;;;5.20;2.60;;;;;;;;;;5094514;28;20514;-82
2022/07/18 13:08:43;;;;;;;6.47;2.78;;;;;;;;;;5093502;28;20534;-81
2022/07/18 13:11:09;;;;;;;5.80;2.70;;;;;;;;;;5089460;28;20040;-82
2022/07/18 13:13:35;;;;;;;4.68;2.97;;;;;;;;;;5093380;28;20040;-82
2022/07/18 13:16:01;;;;;;;4.75;2.60;;;;;;;;;;5084457;28;20051;-81
2022/07/18 13:18:28;;;;;;;7.38;2.90;;;;;;;;;;5055748;28;20496;-81
2022/07/18 13:20:54;;;;;;;5.88;2.72;;;;;;;;;;5082272;28;20043;-80
2022/07/18 13:23:20;;;;;;;7.35;2.63;;;;;;;;;;5093626;28;20498;-79
2022/07/18 13:25:46;;;;;;;5.65;2.80;;;;;;;;;;5079552;28;20481;-79
2022/07/18 13:28:13;;;;;;;6.68;2.65;;;;;;;;;;5079434;28;20100;-79
2022/07/18 13:30:39;;;;;;;4.40;2.63;;;;;;;;;;5093615;28;20047;-79
2022/07/18 13:33:05;;;;;;;5.15;2.75;;;;;;;;;;5088937;28;20076;-79
2022/07/18 13:35:31;;;;;;;8.13;3.15;;;;;;;;;;5082505;28;20040;-79
2022/07/18 13:37:57;;;;;;;3.70;2.75;;;;;;;;;;5089707;28;20076;-79
2022/07/18 13:40:24;;;;;;;5.97;2.70;;;;;;;;;;5090462;28;20040;-76
2022/07/18 13:42:50;;;;;;;5.35;2.60;;;;;;;;;;5093412;28;20136;-77
2022/07/18 13:45:16;;;;;;;3.90;2.65;;;;;;;;;;5075814;28;20036;-81
2022/07/18 13:47:43;;;;;;;5.20;2.50;;;;;;;;;;5094645;28;20097;-71
2022/07/18 13:50:10;;;;;;;4.32;2.80;;;;;;;;;;5081197;28;20048;-70
2022/07/18 13:52:36;;;;;;;4.13;2.60;;;;;;;;;;5095024;28;20119;-72
2022/07/18 13:55:02;;;;;;;5.72;2.42;;;;;;;;;;5093321;28;20043;-71
2022/07/18 13:57:28;;;;;;;6.45;2.78;;;;;;;;;;5087127;28;20489;-72
2022/07/18 13:59:54;;;;;;;4.28;2.70;;;;;;;;;;5085760;28;20123;-70
2022/07/18 14:02:21;;;;;;;5.63;2.60;;;;;;;;;;5095083;28;20480;-67
2022/07/18 14:04:47;;;;;;;5.78;2.50;;;;;;;;;;5094891;28;20063;-68
2022/07/18 14:07:17;;;;;;;4.32;2.65;;;;;;;;;;5094891;28;20051;-67
2022/07/18 14:09:43;;;;;;;7.25;2.42;;;;;;;;;;5093502;28;20036;-70
2022/07/18 14:12:09;;;;;;;5.60;2.67;;;;;;;;;;5093698;28;20040;-70
2022/07/18 14:14:35;;;;;;;8.45;2.75;;;;;;;;;;5095026;28;20043;-70
2022/07/18 14:17:02;;;;;;;5.82;2.80;;;;;;;;;;5094499;28;20040;-70
2022/07/18 14:19:28;;;;;;;5.15;2.80;;;;;;;;;;5110299;28;20047;-69
2022/07/18 14:21:55;;;;;;;5.60;2.42;;;;;;;;;;5092977;28;20089;-70
2022/07/18 14:24:21;;;;;;;4.55;2.40;;;;;;;;;;5093255;28;20040;-74
2022/07/18 14:26:47;;;;;;;5.03;2.80;;;;;;;;;;5093727;28;20519;-73
2022/07/18 14:29:13;;;;;;;4.30;2.35;;;;;;;;;;5076322;28;20047;-73
2022/07/18 14:31:39;;;;;;;5.38;2.53;;;;;;;;;;5094504;28;20051;-73
2022/07/18 14:34:06;;;;;;;6.80;2.40;;;;;;;;;;5092240;28;20056;-73
2022/07/18 14:36:32;;;;;;;4.88;2.65;;;;;;;;;;5093341;28;20083;-74
2022/07/18 14:38:58;;;;;;;5.82;2.70;;;;;;;;;;5092472;28;20051;-73
2022/07/18 14:41:24;;;;;;;5.45;2.70;;;;;;;;;;5094033;28;20042;-76